Time,TemperatureF,DewpointF,PressureIn,WindDirection,WindDirectionDegrees,WindSpeedMPH,WindSpeedGustMPH,Humidity,HourlyPrecipIn,Conditions,Clouds,dailyrainin,SoftwareType,DateUTC
2013-04-21 00:04:00,30.0,29.7,0.00,South,183,20.4,-999.0,99,0.70,,,-99.99,,2013-04-21 08:04:00,
2013-04-21 00:09:00,30.0,29.8,0.00,South,183,18.3,-999.0,99,0.96,,,-99.99,,2013-04-21 08:09:00,
2013-04-21 00:14:00,30.0,29.8,0.00,South,180,16.8,-999.0,99,1.79,,,-99.99,,2013-04-21 08:14:00,
2013-04-21 00:19:00,29.9,29.6,0.00,South,177,17.9,-999.0,99,2.03,,,-99.99,,2013-04-21 08:19:00,
2013-04-21 00:24:00,30.0,29.7,0.00,South,191,21.5,-999.0,99,2.09,,,-99.99,,2013-04-21 08:24:00,
2013-04-21 00:29:00,29.9,29.6,0.00,South,190,20.0,-999.0,99,2.43,,,-99.99,,2013-04-21 08:29:00,
2013-04-21 00:34:00,29.9,29.6,0.00,SSE,166,17.6,-999.0,99,2.79,,,-99.99,,2013-04-21 08:34:00,
2013-04-21 00:39:00,29.8,29.6,0.00,SSE,162,16.8,-999.0,99,3.52,,,-99.99,,2013-04-21 08:39:00,
2013-04-21 00:45:00,29.9,29.6,0.00,South,175,19.7,-999.0,99,3.87,,,-99.99,,2013-04-21 08:45:00,
2013-04-21 00:50:00,29.9,29.6,0.00,South,176,20.2,-999.0,99,5.33,,,-99.99,,2013-04-21 08:50:00,
2013-04-21 00:55:00,30.0,29.7,0.00,South,175,21.7,-999.0,99,5.67,,,-99.99,,2013-04-21 08:55:00,
2013-04-21 01:00:00,30.1,29.8,0.00,South,180,17.0,-999.0,99,0.00,,,-99.99,,2013-04-21 09:00:00,
2013-04-21 01:05:00,30.1,29.8,0.00,South,177,20.1,-999.0,99,0.30,,,-99.99,,2013-04-21 09:05:00,
2013-04-21 01:10:00,30.0,29.7,0.00,South,175,16.4,-999.0,99,0.85,,,-99.99,,2013-04-21 09:10:00,
2013-04-21 01:15:00,30.2,30.0,0.00,South,183,22.3,-999.0,99,0.88,,,-99.99,,2013-04-21 09:15:00,
2013-04-21 01:20:00,30.1,29.9,0.00,South,176,18.8,-999.0,99,1.05,,,-99.99,,2013-04-21 09:20:00,
2013-04-21 01:25:00,30.2,29.9,0.00,South,181,13.5,-999.0,99,1.22,,,-99.99,,2013-04-21 09:25:00,
2013-04-21 01:30:00,30.2,30.0,0.00,South,179,19.3,-999.0,99,1.72,,,-99.99,,2013-04-21 09:30:00,
2013-04-21 01:35:00,30.3,30.1,0.00,SSE,164,17.7,-999.0,99,2.02,,,-99.99,,2013-04-21 09:35:00,
2013-04-21 01:40:00,30.4,30.2,0.00,South,173,24.6,-999.0,99,2.09,,,-99.99,,2013-04-21 09:40:00,
2013-04-21 01:45:00,30.4,30.2,0.00,South,179,20.0,-999.0,99,2.16,,,-99.99,,2013-04-21 09:45:00,
2013-04-21 01:50:00,30.2,30.0,0.00,SSE,166,16.8,-999.0,99,2.46,,,-99.99,,2013-04-21 09:50:00,
2013-04-21 01:55:00,30.2,30.0,0.00,South,182,20.3,-999.0,99,2.86,,,-99.99,,2013-04-21 09:55:00,
2013-04-21 02:00:00,30.2,30.0,0.00,South,173,15.1,-999.0,99,0.26,,,-99.99,,2013-04-21 10:00:00,
2013-04-21 02:05:00,30.2,30.0,0.00,South,172,23.6,-999.0,99,0.56,,,-99.99,,2013-04-21 10:05:00,
2013-04-21 02:10:00,30.2,30.0,0.00,South,179,19.3,-999.0,99,0.81,,,-99.99,,2013-04-21 10:10:00,
2013-04-21 02:15:00,30.2,30.0,0.00,South,181,23.7,-999.0,99,1.02,,,-99.99,,2013-04-21 10:15:00,
2013-04-21 02:20:00,30.4,30.1,0.00,SSE,161,17.8,-999.0,99,1.43,,,-99.99,,2013-04-21 10:20:00,
2013-04-21 02:25:00,30.3,30.1,0.00,South,170,21.4,-999.0,99,1.54,,,-99.99,,2013-04-21 10:25:00,
2013-04-21 02:30:00,30.5,30.3,0.00,SSE,168,18.9,-999.0,99,2.30,,,-99.99,,2013-04-21 10:30:00,
2013-04-21 02:35:00,30.6,30.3,0.00,South,177,21.4,-999.0,99,2.88,,,-99.99,,2013-04-21 10:35:00,
2013-04-21 02:40:00,30.6,30.3,0.00,South,189,24.7,-999.0,99,3.44,,,-99.99,,2013-04-21 10:40:00,
2013-04-21 02:45:00,30.5,30.3,0.00,South,183,20.9,-999.0,99,3.81,,,-99.99,,2013-04-21 10:45:00,
2013-04-21 02:50:00,30.4,30.2,0.00,South,173,23.1,-999.0,99,4.20,,,-99.99,,2013-04-21 10:50:00,
2013-04-21 02:55:00,30.4,30.1,0.00,South,175,22.8,-999.0,99,4.68,,,-99.99,,2013-04-21 10:55:00,
2013-04-21 03:00:00,30.5,30.2,0.00,South,181,21.7,-999.0,99,0.01,,,-99.99,,2013-04-21 11:00:00,
2013-04-21 03:05:00,30.4,30.2,0.00,SSE,167,23.4,-999.0,99,0.26,,,-99.99,,2013-04-21 11:05:00,
2013-04-21 03:10:00,30.6,30.4,0.00,South,170,19.5,-999.0,99,0.35,,,-99.99,,2013-04-21 11:10:00,
2013-04-21 03:15:00,30.6,30.3,0.00,SSE,168,20.9,-999.0,99,0.39,,,-99.99,,2013-04-21 11:15:00,
2013-04-21 03:20:00,30.7,30.5,0.00,South,178,18.6,-999.0,99,0.41,,,-99.99,,2013-04-21 11:20:00,
2013-04-21 03:25:00,30.6,30.3,0.00,South,176,17.7,-999.0,99,0.52,,,-99.99,,2013-04-21 11:25:00,
2013-04-21 03:31:00,30.8,30.6,0.00,South,170,17.5,-999.0,99,0.53,,,-99.99,,2013-04-21 11:31:00,
2013-04-21 03:36:00,30.7,30.5,0.00,South,172,25.6,-999.0,99,0.54,,,-99.99,,2013-04-21 11:36:00,
2013-04-21 03:41:00,30.7,30.6,0.00,South,175,27.1,-999.0,99,0.54,,,-99.99,,2013-04-21 11:41:00,
2013-04-21 03:46:00,30.8,30.7,0.00,South,172,23.7,-999.0,99,0.54,,,-99.99,,2013-04-21 11:46:00,
2013-04-21 03:51:00,30.7,30.6,0.00,South,179,23.8,-999.0,99,0.59,,,-99.99,,2013-04-21 11:51:00,
2013-04-21 03:56:00,30.7,30.5,0.00,SSE,164,20.3,-999.0,99,0.68,,,-99.99,,2013-04-21 11:56:00,
2013-04-21 04:01:00,30.6,30.5,0.00,SSE,164,22.5,-999.0,99,0.00,,,-99.99,,2013-04-21 12:01:00,
2013-04-21 04:06:00,30.6,30.5,0.00,South,191,25.8,-999.0,99,0.00,,,-99.99,,2013-04-21 12:06:00,
2013-04-21 04:11:00,30.7,30.5,0.00,SSE,163,20.6,-999.0,99,0.00,,,-99.99,,2013-04-21 12:11:00,
2013-04-21 04:16:00,30.6,30.5,0.00,South,171,19.5,-999.0,99,0.00,,,-99.99,,2013-04-21 12:16:00,
2013-04-21 04:21:00,30.5,30.4,0.00,South,178,20.3,-999.0,99,0.00,,,-99.99,,2013-04-21 12:21:00,
2013-04-21 04:26:00,30.6,30.4,0.00,SSE,156,20.2,-999.0,99,0.00,,,-99.99,,2013-04-21 12:26:00,
2013-04-21 04:31:00,30.6,30.5,0.00,South,180,21.5,-999.0,99,0.00,,,-99.99,,2013-04-21 12:31:00,
2013-04-21 04:37:00,30.6,30.5,0.00,South,181,26.3,-999.0,99,0.00,,,-99.99,,2013-04-21 12:37:00,
2013-04-21 04:43:00,30.5,30.4,0.00,SSE,167,19.9,-999.0,99,0.00,,,-99.99,,2013-04-21 12:43:00,
2013-04-21 04:48:00,30.3,30.2,0.00,South,170,25.6,-999.0,99,0.00,,,-99.99,,2013-04-21 12:48:00,
2013-04-21 04:53:00,30.6,30.4,0.00,SSE,165,24.6,-999.0,99,0.00,,,-99.99,,2013-04-21 12:53:00,
2013-04-21 04:58:00,30.6,30.5,0.00,South,174,23.7,-999.0,99,0.00,,,-99.99,,2013-04-21 12:58:00,
2013-04-21 05:03:00,30.6,30.4,0.00,South,178,22.4,-999.0,99,0.00,,,-99.99,,2013-04-21 13:03:00,
2013-04-21 05:08:00,30.6,30.4,0.00,South,177,24.9,-999.0,99,0.00,,,-99.99,,2013-04-21 13:08:00,
2013-04-21 05:13:00,30.7,30.6,0.00,SSE,168,19.2,-999.0,99,0.00,,,-99.99,,2013-04-21 13:13:00,
2013-04-21 05:18:00,30.7,30.6,0.00,SSE,160,18.3,-999.0,99,0.00,,,-99.99,,2013-04-21 13:18:00,
2013-04-21 05:23:00,30.8,30.7,0.00,South,173,23.1,-999.0,99,0.00,,,-99.99,,2013-04-21 13:23:00,
2013-04-21 05:28:00,30.7,30.6,0.00,South,174,28.3,-999.0,99,0.00,,,-99.99,,2013-04-21 13:28:00,
2013-04-21 05:33:00,30.6,30.5,0.00,South,170,22.2,-999.0,99,0.00,,,-99.99,,2013-04-21 13:33:00,
2013-04-21 05:38:00,30.6,30.5,0.00,South,181,22.2,-999.0,99,0.00,,,-99.99,,2013-04-21 13:38:00,
2013-04-21 05:43:00,30.5,30.4,0.00,SSE,165,25.2,-999.0,99,0.00,,,-99.99,,2013-04-21 13:43:00,
2013-04-21 05:48:00,30.6,30.4,0.00,South,173,24.7,-999.0,99,0.00,,,-99.99,,2013-04-21 13:48:00,
2013-04-21 05:53:00,30.5,30.4,0.00,SSE,165,18.8,-999.0,99,0.00,,,-99.99,,2013-04-21 13:53:00,
2013-04-21 05:58:00,30.6,30.5,0.00,South,173,22.1,-999.0,99,0.00,,,-99.99,,2013-04-21 13:58:00,
2013-04-21 06:03:00,30.6,30.5,0.00,SSE,165,19.6,-999.0,99,0.00,,,-99.99,,2013-04-21 14:03:00,
2013-04-21 06:08:00,30.6,30.5,0.00,SSE,168,20.2,-999.0,99,0.00,,,-99.99,,2013-04-21 14:08:00,
2013-04-21 06:13:00,30.7,30.6,0.00,SSE,161,18.1,-999.0,99,0.00,,,-99.99,,2013-04-21 14:13:00,
2013-04-21 06:18:00,30.4,30.3,0.00,SSE,168,21.2,-999.0,99,0.00,,,-99.99,,2013-04-21 14:18:00,
2013-04-21 06:23:00,30.5,30.3,0.00,South,180,21.8,-999.0,99,0.00,,,-99.99,,2013-04-21 14:23:00,
2013-04-21 06:28:00,30.5,30.4,0.00,South,171,22.8,-999.0,99,0.00,,,-99.99,,2013-04-21 14:28:00,
2013-04-21 06:33:00,30.6,30.5,0.00,South,170,25.4,-999.0,99,0.00,,,-99.99,,2013-04-21 14:33:00,
2013-04-21 06:38:00,30.8,30.6,0.00,South,176,21.1,-999.0,99,0.00,,,-99.99,,2013-04-21 14:38:00,
2013-04-21 06:43:00,30.8,30.7,0.00,SSE,168,27.2,-999.0,99,0.00,,,-99.99,,2013-04-21 14:43:00,
2013-04-21 06:48:00,30.7,30.6,0.00,South,173,26.2,-999.0,99,0.00,,,-99.99,,2013-04-21 14:48:00,
2013-04-21 06:53:00,30.6,30.5,0.00,South,169,22.9,-999.0,99,0.00,,,-99.99,,2013-04-21 14:53:00,
2013-04-21 06:58:00,30.6,30.5,0.00,South,175,21.0,-999.0,99,0.00,,,-99.99,,2013-04-21 14:58:00,
2013-04-21 07:03:00,30.6,30.5,0.00,SSE,168,20.2,-999.0,99,0.00,,,-99.99,,2013-04-21 15:03:00,
2013-04-21 07:08:00,30.6,30.5,0.00,SSE,163,23.4,-999.0,99,0.00,,,-99.99,,2013-04-21 15:08:00,
2013-04-21 07:13:00,30.5,30.4,0.00,SSE,154,18.5,-999.0,99,0.00,,,-99.99,,2013-04-21 15:13:00,
2013-04-21 07:18:00,30.6,30.5,0.00,South,175,19.7,-999.0,99,0.00,,,-99.99,,2013-04-21 15:18:00,
2013-04-21 07:23:00,30.6,30.5,0.00,SSE,151,14.4,-999.0,99,0.00,,,-99.99,,2013-04-21 15:23:00,
2013-04-21 07:28:00,30.2,30.1,0.00,SSE,165,15.4,-999.0,99,0.00,,,-99.99,,2013-04-21 15:28:00,
2013-04-21 07:33:00,30.1,30.0,0.00,SSE,166,16.8,-999.0,99,0.00,,,-99.99,,2013-04-21 15:33:00,
2013-04-21 07:38:00,30.3,30.1,0.00,SSE,158,13.3,-999.0,99,0.00,,,-99.99,,2013-04-21 15:38:00,
2013-04-21 07:43:00,30.0,29.9,0.00,SSE,168,16.3,-999.0,99,0.00,,,-99.99,,2013-04-21 15:43:00,
2013-04-21 07:48:00,30.1,30.0,0.00,SSE,162,15.4,-999.0,99,0.00,,,-99.99,,2013-04-21 15:48:00,
2013-04-21 07:53:00,30.2,30.1,0.00,SSE,155,13.2,-999.0,99,0.00,,,-99.99,,2013-04-21 15:53:00,
2013-04-21 07:58:00,30.3,30.1,0.00,SSE,154,15.1,-999.0,99,0.00,,,-99.99,,2013-04-21 15:58:00,
2013-04-21 08:03:00,30.2,30.0,0.00,SSE,166,13.6,-999.0,99,0.00,,,-99.99,,2013-04-21 16:03:00,
2013-04-21 08:08:00,30.3,30.1,0.00,South,171,17.5,-999.0,99,0.00,,,-99.99,,2013-04-21 16:08:00,
2013-04-21 08:13:00,30.2,30.0,0.00,SSE,165,13.7,-999.0,99,0.00,,,-99.99,,2013-04-21 16:13:00,
2013-04-21 08:18:00,30.3,30.1,0.00,South,169,13.6,-999.0,99,0.00,,,-99.99,,2013-04-21 16:18:00,
2013-04-21 08:23:00,30.1,29.9,0.00,SSE,158,16.4,-999.0,99,0.00,,,-99.99,,2013-04-21 16:23:00,
2013-04-21 08:28:00,30.1,29.9,0.00,SSE,151,13.7,-999.0,99,0.00,,,-99.99,,2013-04-21 16:28:00,
2013-04-21 08:33:00,30.2,30.0,0.00,SSE,153,13.1,-999.0,99,0.00,,,-99.99,,2013-04-21 16:33:00,
2013-04-21 08:38:00,30.2,30.0,0.00,SSE,150,12.4,-999.0,99,0.00,,,-99.99,,2013-04-21 16:38:00,
2013-04-21 08:43:00,30.4,30.2,0.00,SSE,151,12.6,-999.0,99,0.00,,,-99.99,,2013-04-21 16:43:00,
2013-04-21 08:48:00,30.2,30.0,0.00,SE,140,12.0,-999.0,99,0.00,,,-99.99,,2013-04-21 16:48:00,
2013-04-21 08:53:00,30.3,30.1,0.00,South,170,14.3,-999.0,99,0.00,,,-99.99,,2013-04-21 16:53:00,
2013-04-21 08:58:00,30.4,30.3,0.00,SSE,147,12.6,-999.0,99,0.00,,,-99.99,,2013-04-21 16:58:00,
2013-04-21 09:03:00,30.3,30.1,0.00,SSE,162,12.2,-999.0,99,0.00,,,-99.99,,2013-04-21 17:03:00,
2013-04-21 09:08:00,30.3,30.2,0.00,SSE,161,15.1,-999.0,99,0.00,,,-99.99,,2013-04-21 17:08:00,
2013-04-21 09:13:00,30.4,30.3,0.00,SSE,163,12.1,-999.0,99,0.00,,,-99.99,,2013-04-21 17:13:00,
2013-04-21 09:18:00,30.4,30.2,0.00,SSE,158,9.4,-999.0,99,0.00,,,-99.99,,2013-04-21 17:18:00,
2013-04-21 09:23:00,30.4,30.3,0.00,SSE,160,12.9,-999.0,99,0.00,,,-99.99,,2013-04-21 17:23:00,
2013-04-21 09:28:00,30.3,30.1,0.00,SSE,148,11.8,-999.0,99,0.00,,,-99.99,,2013-04-21 17:28:00,
2013-04-21 09:33:00,30.3,30.1,0.00,South,170,11.2,-999.0,99,0.00,,,-99.99,,2013-04-21 17:33:00,
2013-04-21 09:38:00,30.4,30.2,0.00,ESE,123,8.6,-999.0,99,0.00,,,-99.99,,2013-04-21 17:38:00,
2013-04-21 09:43:00,30.3,30.1,0.00,SE,146,9.6,-999.0,99,0.00,,,-99.99,,2013-04-21 17:43:00,
2013-04-21 09:48:00,30.3,30.1,0.00,SSE,152,11.3,-999.0,99,0.00,,,-99.99,,2013-04-21 17:48:00,
2013-04-21 09:53:00,30.3,30.1,0.00,SSE,157,11.4,-999.0,99,0.00,,,-99.99,,2013-04-21 17:53:00,
2013-04-21 09:58:00,30.4,30.2,0.00,SSE,158,13.4,-999.0,99,0.00,,,-99.99,,2013-04-21 17:58:00,
2013-04-21 10:03:00,30.4,30.2,0.00,SE,134,12.8,-999.0,99,0.00,,,-99.99,,2013-04-21 18:03:00,
2013-04-21 10:08:00,30.2,30.1,0.00,SE,139,13.8,-999.0,99,0.00,,,-99.99,,2013-04-21 18:08:00,
2013-04-21 10:13:00,30.2,30.0,0.00,SSE,151,13.1,-999.0,99,0.00,,,-99.99,,2013-04-21 18:13:00,
2013-04-21 10:18:00,30.2,30.1,0.00,SE,131,11.4,-999.0,99,0.00,,,-99.99,,2013-04-21 18:18:00,
2013-04-21 10:23:00,30.3,30.1,0.00,SE,141,11.4,-999.0,99,0.00,,,-99.99,,2013-04-21 18:23:00,
2013-04-21 10:28:00,30.2,30.0,0.00,SSE,147,12.6,-999.0,99,0.00,,,-99.99,,2013-04-21 18:28:00,
2013-04-21 10:33:00,30.2,30.0,0.00,SE,134,15.5,-999.0,99,0.00,,,-99.99,,2013-04-21 18:33:00,
2013-04-21 10:38:00,30.2,30.1,0.00,SE,144,14.4,-999.0,99,0.00,,,-99.99,,2013-04-21 18:38:00,
2013-04-21 10:43:00,30.1,29.9,0.00,SE,133,15.4,-999.0,99,0.00,,,-99.99,,2013-04-21 18:43:00,
2013-04-21 10:48:00,30.2,30.0,0.00,SE,134,19.3,-999.0,99,0.00,,,-99.99,,2013-04-21 18:48:00,
2013-04-21 10:53:00,30.1,29.9,0.00,SSE,148,18.5,-999.0,99,0.00,,,-99.99,,2013-04-21 18:53:00,
2013-04-21 10:58:00,30.3,30.0,0.00,SE,143,17.9,-999.0,99,0.00,,,-99.99,,2013-04-21 18:58:00,
2013-04-21 11:03:00,30.1,29.9,0.00,SE,146,12.5,-999.0,99,0.00,,,-99.99,,2013-04-21 19:03:00,
2013-04-21 11:08:00,30.1,29.9,0.00,SE,138,17.9,-999.0,99,0.00,,,-99.99,,2013-04-21 19:08:00,
2013-04-21 11:13:00,30.1,29.9,0.00,SE,137,19.1,-999.0,99,0.00,,,-99.99,,2013-04-21 19:13:00,
2013-04-21 11:18:00,30.2,30.0,0.00,SE,124,18.2,-999.0,99,0.00,,,-99.99,,2013-04-21 19:18:00,
2013-04-21 11:23:00,30.1,29.9,0.00,SE,139,20.7,-999.0,99,0.00,,,-99.99,,2013-04-21 19:23:00,
2013-04-21 11:28:00,30.0,29.8,0.00,SE,143,20.7,-999.0,99,0.00,,,-99.99,,2013-04-21 19:28:00,
2013-04-21 11:33:00,30.3,30.1,0.00,SE,144,20.4,-999.0,99,0.00,,,-99.99,,2013-04-21 19:33:00,
2013-04-21 11:38:00,30.3,30.1,0.00,SE,124,20.7,-999.0,99,0.00,,,-99.99,,2013-04-21 19:38:00,
2013-04-21 11:43:00,30.3,30.1,0.00,SSE,151,17.3,-999.0,99,0.00,,,-99.99,,2013-04-21 19:43:00,
2013-04-21 11:48:00,30.1,29.9,0.00,SE,130,22.0,-999.0,99,0.00,,,-99.99,,2013-04-21 19:48:00,
2013-04-21 11:53:00,30.0,29.8,0.00,SE,125,30.1,-999.0,99,0.00,,,-99.99,,2013-04-21 19:53:00,
2013-04-21 11:58:00,29.9,29.7,0.00,ESE,104,23.3,-999.0,99,0.00,,,-99.99,,2013-04-21 19:58:00,
2013-04-21 12:03:00,30.0,29.7,0.00,SSE,152,22.5,-999.0,99,0.00,,,-99.99,,2013-04-21 20:03:00,
2013-04-21 12:08:00,29.8,29.6,0.00,SE,135,24.8,-999.0,99,0.00,,,-99.99,,2013-04-21 20:08:00,
2013-04-21 12:13:00,29.9,29.7,0.00,SE,137,27.6,-999.0,99,0.00,,,-99.99,,2013-04-21 20:13:00,
2013-04-21 12:19:00,29.8,29.6,0.00,ESE,120,26.8,-999.0,99,0.00,,,-99.99,,2013-04-21 20:19:00,
2013-04-21 12:24:00,29.8,29.5,0.00,SE,124,25.2,-999.0,99,0.00,,,-99.99,,2013-04-21 20:24:00,
2013-04-21 12:29:00,29.9,29.6,0.00,ESE,120,26.1,-999.0,99,0.00,,,-99.99,,2013-04-21 20:29:00,
2013-04-21 12:34:00,29.8,29.5,0.00,ESE,118,20.2,-999.0,99,0.00,,,-99.99,,2013-04-21 20:34:00,
2013-04-21 12:39:00,29.8,29.5,0.00,ESE,118,25.1,-999.0,99,0.00,,,-99.99,,2013-04-21 20:39:00,
2013-04-21 12:44:00,29.9,29.6,0.00,SSE,153,22.9,-999.0,99,0.00,,,-99.99,,2013-04-21 20:44:00,
2013-04-21 12:49:00,29.9,29.6,0.00,SE,141,23.5,-999.0,99,0.00,,,-99.99,,2013-04-21 20:49:00,
2013-04-21 12:54:00,29.9,29.6,0.00,ESE,116,19.2,-999.0,99,0.00,,,-99.99,,2013-04-21 20:54:00,
2013-04-21 12:59:00,29.9,29.6,0.00,ESE,110,13.9,-999.0,99,0.00,,,-99.99,,2013-04-21 20:59:00,
2013-04-21 13:04:00,29.8,29.5,0.00,ESE,110,20.0,-999.0,99,0.00,,,-99.99,,2013-04-21 21:04:00,
2013-04-21 13:09:00,30.0,29.8,0.00,SSE,158,24.6,-999.0,99,0.00,,,-99.99,,2013-04-21 21:09:00,
2013-04-21 13:14:00,30.1,29.9,0.00,SE,136,19.6,-999.0,99,0.00,,,-99.99,,2013-04-21 21:14:00,
2013-04-21 13:19:00,30.1,29.9,0.00,ESE,122,14.9,-999.0,99,0.00,,,-99.99,,2013-04-21 21:19:00,
2013-04-21 13:24:00,30.1,29.8,0.00,SE,128,16.4,-999.0,99,0.00,,,-99.99,,2013-04-21 21:24:00,
2013-04-21 13:29:00,30.1,29.8,0.00,SSE,154,23.6,-999.0,99,0.00,,,-99.99,,2013-04-21 21:29:00,
2013-04-21 13:34:00,30.1,29.9,0.00,SE,132,18.9,-999.0,99,0.00,,,-99.99,,2013-04-21 21:34:00,
2013-04-21 13:39:00,30.1,29.9,0.00,ENE,71,13.0,-999.0,99,0.00,,,-99.99,,2013-04-21 21:39:00,
2013-04-21 13:44:00,30.0,29.7,0.00,SSE,151,22.1,-999.0,99,0.00,,,-99.99,,2013-04-21 21:44:00,
2013-04-21 13:49:00,30.1,29.8,0.00,SE,131,13.9,-999.0,99,0.00,,,-99.99,,2013-04-21 21:49:00,
2013-04-21 13:54:00,30.0,29.7,0.00,SE,130,15.4,-999.0,99,0.00,,,-99.99,,2013-04-21 21:54:00,
2013-04-21 13:59:00,30.2,29.9,0.00,SE,136,17.2,-999.0,99,0.00,,,-99.99,,2013-04-21 21:59:00,
2013-04-21 14:04:00,30.2,30.0,0.00,SE,139,19.6,-999.0,99,0.00,,,-99.99,,2013-04-21 22:04:00,
2013-04-21 14:09:00,30.1,29.8,0.00,ESE,113,19.9,-999.0,99,0.00,,,-99.99,,2013-04-21 22:09:00,
2013-04-21 14:15:00,30.4,30.1,0.00,SSE,151,17.8,-999.0,99,0.00,,,-99.99,,2013-04-21 22:15:00,
2013-04-21 14:20:00,30.2,29.9,0.00,East,97,17.5,-999.0,99,0.00,,,-99.99,,2013-04-21 22:20:00,
2013-04-21 14:25:00,30.4,30.1,0.00,SE,128,17.5,-999.0,99,0.00,,,-99.99,,2013-04-21 22:25:00,
2013-04-21 14:30:00,30.2,29.9,0.00,SE,124,18.5,-999.0,99,0.00,,,-99.99,,2013-04-21 22:30:00,
2013-04-21 14:35:00,30.3,30.0,0.00,SE,125,19.6,-999.0,99,0.00,,,-99.99,,2013-04-21 22:35:00,
2013-04-21 14:40:00,30.3,30.0,0.00,SSE,154,15.6,-999.0,99,0.00,,,-99.99,,2013-04-21 22:40:00,
2013-04-21 14:45:00,30.3,30.0,0.00,SE,143,18.6,-999.0,99,0.00,,,-99.99,,2013-04-21 22:45:00,
2013-04-21 14:50:00,30.3,30.1,0.00,ENE,73,21.8,-999.0,99,0.00,,,-99.99,,2013-04-21 22:50:00,
2013-04-21 14:55:00,30.2,30.0,0.00,SE,128,16.3,-999.0,99,0.00,,,-99.99,,2013-04-21 22:55:00,
2013-04-21 15:00:00,30.2,30.0,0.00,ENE,73,25.8,-999.0,99,0.00,,,-99.99,,2013-04-21 23:00:00,
2013-04-21 15:05:00,30.3,30.0,0.00,SE,125,24.1,-999.0,99,0.00,,,-99.99,,2013-04-21 23:05:00,
2013-04-21 15:10:00,30.3,30.0,0.00,SE,125,14.4,-999.0,99,0.00,,,-99.99,,2013-04-21 23:10:00,
2013-04-21 15:15:00,30.1,30.0,0.00,ENE,72,24.3,-999.0,99,0.00,,,-99.99,,2013-04-21 23:15:00,
2013-04-21 15:20:00,30.1,29.9,0.00,East,79,16.6,-999.0,99,0.00,,,-99.99,,2013-04-21 23:20:00,
2013-04-21 15:25:00,30.3,30.0,0.00,East,101,11.1,-999.0,99,0.00,,,-99.99,,2013-04-21 23:25:00,
2013-04-21 15:30:00,30.3,30.0,0.00,SE,144,11.2,-999.0,99,0.00,,,-99.99,,2013-04-21 23:30:00,
2013-04-21 15:35:00,30.3,30.1,0.00,ENE,76,13.9,-999.0,99,0.00,,,-99.99,,2013-04-21 23:35:00,
2013-04-21 15:40:00,30.3,30.0,0.00,SE,130,13.9,-999.0,99,0.00,,,-99.99,,2013-04-21 23:40:00,
2013-04-21 15:45:00,30.3,30.0,0.00,ESE,108,11.3,-999.0,99,0.00,,,-99.99,,2013-04-21 23:45:00,
2013-04-21 15:50:00,30.3,30.0,0.00,SSE,160,25.6,-999.0,99,0.00,,,-99.99,,2013-04-21 23:50:00,
2013-04-21 15:55:00,30.3,30.1,0.00,ESE,103,10.3,-999.0,99,0.00,,,-99.99,,2013-04-21 23:55:00,
2013-04-21 16:00:00,30.5,30.2,0.00,SSE,153,19.8,-999.0,99,0.00,,,-99.99,,2013-04-22 00:00:00,
2013-04-21 16:05:00,30.3,30.1,0.00,SE,129,16.4,-999.0,99,0.00,,,-99.99,,2013-04-22 00:05:00,
2013-04-21 16:10:00,30.3,30.1,0.00,East,97,15.9,-999.0,99,0.00,,,-99.99,,2013-04-22 00:10:00,
2013-04-21 16:15:00,30.3,30.1,0.00,East,97,10.9,-999.0,99,0.00,,,-99.99,,2013-04-22 00:15:00,
2013-04-21 16:20:00,30.3,30.1,0.00,SE,134,12.4,-999.0,99,0.00,,,-99.99,,2013-04-22 00:20:00,
2013-04-21 16:25:00,30.3,30.1,0.00,SE,137,10.1,-999.0,99,0.00,,,-99.99,,2013-04-22 00:25:00,
2013-04-21 16:30:00,30.4,30.1,0.00,SE,134,10.8,-999.0,99,0.00,,,-99.99,,2013-04-22 00:30:00,
2013-04-21 16:35:00,30.6,30.4,0.00,East,81,18.6,-999.0,99,0.00,,,-99.99,,2013-04-22 00:35:00,
2013-04-21 16:40:00,30.4,30.2,0.00,SE,132,22.2,-999.0,99,0.00,,,-99.99,,2013-04-22 00:40:00,
2013-04-21 16:45:00,30.3,30.1,0.00,SE,140,24.4,-999.0,99,0.00,,,-99.99,,2013-04-22 00:45:00,
2013-04-21 16:50:00,30.4,30.3,0.00,East,80,11.2,-999.0,99,0.00,,,-99.99,,2013-04-22 00:50:00,
2013-04-21 16:56:00,30.5,30.3,0.00,SE,143,13.1,-999.0,99,0.00,,,-99.99,,2013-04-22 00:56:00,
2013-04-21 17:01:00,30.5,30.3,0.00,SE,145,12.7,-999.0,99,0.00,,,-99.99,,2013-04-22 01:01:00,
2013-04-21 17:06:00,30.5,30.3,0.00,ENE,75,10.3,-999.0,99,0.00,,,-99.99,,2013-04-22 01:06:00,
2013-04-21 17:11:00,30.5,30.3,0.00,ESE,120,6.7,-999.0,99,0.00,,,-99.99,,2013-04-22 01:11:00,
2013-04-21 17:16:00,30.6,30.5,0.00,East,95,7.9,-999.0,99,0.00,,,-99.99,,2013-04-22 01:16:00,
2013-04-21 17:21:00,30.4,30.2,0.00,SE,132,8.4,-999.0,99,0.00,,,-99.99,,2013-04-22 01:21:00,
2013-04-21 17:26:00,30.7,30.5,0.00,SE,146,7.3,-999.0,99,0.00,,,-99.99,,2013-04-22 01:26:00,
2013-04-21 17:31:00,30.7,30.5,0.00,SE,129,10.4,-999.0,99,0.00,,,-99.99,,2013-04-22 01:31:00,
2013-04-21 17:37:00,30.6,30.4,0.00,ESE,113,7.7,-999.0,99,0.00,,,-99.99,,2013-04-22 01:37:00,
2013-04-21 17:42:00,30.7,30.5,0.00,SE,142,11.5,-999.0,99,0.00,,,-99.99,,2013-04-22 01:42:00,
2013-04-21 17:47:00,30.5,30.3,0.00,SE,139,19.1,-999.0,99,0.00,,,-99.99,,2013-04-22 01:47:00,
2013-04-21 17:52:00,30.5,30.3,0.00,SE,130,13.2,-999.0,99,0.00,,,-99.99,,2013-04-22 01:52:00,
2013-04-21 17:57:00,30.5,30.3,0.00,SE,124,13.8,-999.0,99,0.00,,,-99.99,,2013-04-22 01:57:00,
2013-04-21 18:02:00,30.5,30.4,0.00,SSE,157,15.1,-999.0,99,0.00,,,-99.99,,2013-04-22 02:02:00,
2013-04-21 18:07:00,30.5,30.4,0.00,East,99,12.7,-999.0,99,0.00,,,-99.99,,2013-04-22 02:07:00,
2013-04-21 18:12:00,30.5,30.4,0.00,East,90,14.2,-999.0,99,0.00,,,-99.99,,2013-04-22 02:12:00,
2013-04-21 18:17:00,30.5,30.3,0.00,SSE,167,21.6,-999.0,99,0.00,,,-99.99,,2013-04-22 02:17:00,
2013-04-21 18:22:00,30.5,30.4,0.00,SE,138,13.6,-999.0,99,0.00,,,-99.99,,2013-04-22 02:22:00,
2013-04-21 18:27:00,30.5,30.4,0.00,SE,139,17.8,-999.0,99,0.00,,,-99.99,,2013-04-22 02:27:00,
2013-04-21 18:32:00,30.5,30.3,0.00,SE,140,16.6,-999.0,99,0.00,,,-99.99,,2013-04-22 02:32:00,
2013-04-21 18:37:00,30.4,30.3,0.00,SE,127,8.2,-999.0,99,0.00,,,-99.99,,2013-04-22 02:37:00,
2013-04-21 18:42:00,30.6,30.4,0.00,South,182,9.9,-999.0,99,0.00,,,-99.99,,2013-04-22 02:42:00,
2013-04-21 18:47:00,30.6,30.4,0.00,SE,131,12.9,-999.0,99,0.00,,,-99.99,,2013-04-22 02:47:00,
2013-04-21 18:52:00,30.6,30.5,0.00,SE,124,9.5,-999.0,99,0.00,,,-99.99,,2013-04-22 02:52:00,
2013-04-21 18:57:00,30.5,30.4,0.00,SSE,153,10.8,-999.0,99,0.00,,,-99.99,,2013-04-22 02:57:00,
2013-04-21 19:02:00,30.5,30.5,0.00,East,87,17.3,-999.0,99,0.00,,,-99.99,,2013-04-22 03:02:00,
2013-04-21 19:07:00,30.2,30.1,0.00,ESE,121,11.6,-999.0,99,0.00,,,-99.99,,2013-04-22 03:07:00,
2013-04-21 19:12:00,30.1,29.9,0.00,SE,131,13.5,-999.0,99,0.00,,,-99.99,,2013-04-22 03:12:00,
2013-04-21 19:17:00,30.2,30.0,0.00,SE,126,14.2,-999.0,99,0.00,,,-99.99,,2013-04-22 03:17:00,
2013-04-21 19:22:00,30.2,30.1,0.00,SE,124,13.8,-999.0,99,0.00,,,-99.99,,2013-04-22 03:22:00,
2013-04-21 19:27:00,30.2,30.0,0.00,SSE,155,12.0,-999.0,99,0.00,,,-99.99,,2013-04-22 03:27:00,
2013-04-21 19:32:00,30.2,30.1,0.00,SE,141,14.6,-999.0,99,0.00,,,-99.99,,2013-04-22 03:32:00,
2013-04-21 19:37:00,30.2,30.1,0.00,ESE,123,13.6,-999.0,99,0.00,,,-99.99,,2013-04-22 03:37:00,
2013-04-21 19:42:00,30.2,30.0,0.00,ESE,111,14.5,-999.0,99,0.00,,,-99.99,,2013-04-22 03:42:00,
2013-04-21 19:47:00,30.2,30.0,0.00,SSE,157,11.2,-999.0,99,0.00,,,-99.99,,2013-04-22 03:47:00,
2013-04-21 19:52:00,30.3,30.1,0.00,SE,139,11.8,-999.0,99,0.00,,,-99.99,,2013-04-22 03:52:00,
2013-04-21 19:57:00,30.4,30.3,0.00,SE,133,14.0,-999.0,99,0.00,,,-99.99,,2013-04-22 03:57:00,
2013-04-21 20:01:00,30.2,30.0,0.00,SE,137,11.3,-999.0,99,0.00,,,-99.99,,2013-04-22 04:01:00,
2013-04-21 20:02:00,30.1,30.0,0.00,SSE,158,9.7,-999.0,99,0.00,,,-99.99,,2013-04-22 04:02:00,
2013-04-21 20:03:00,30.2,30.0,0.00,SE,145,10.6,-999.0,99,0.00,,,-99.99,,2013-04-22 04:03:00,
2013-04-21 20:04:00,30.2,30.0,0.00,SSE,157,10.3,-999.0,99,0.00,,,-99.99,,2013-04-22 04:04:00,
2013-04-21 20:09:00,30.3,30.2,0.00,SE,143,11.1,-999.0,99,0.00,,,-99.99,,2013-04-22 04:09:00,
2013-04-21 20:14:00,30.4,30.3,0.00,SE,144,12.3,-999.0,99,0.00,,,-99.99,,2013-04-22 04:14:00,
2013-04-21 20:18:00,30.3,30.1,0.00,SSE,168,11.6,-999.0,99,0.00,,,-99.99,,2013-04-22 04:18:00,
2013-04-21 20:23:00,30.2,30.1,0.00,ESE,114,7.4,-999.0,99,0.00,,,-99.99,,2013-04-22 04:23:00,
2013-04-21 20:28:00,30.4,30.2,0.00,South,173,14.6,-999.0,99,0.00,,,-99.99,,2013-04-22 04:28:00,
2013-04-21 20:33:00,30.3,30.2,0.00,SSE,163,13.4,-999.0,99,0.00,,,-99.99,,2013-04-22 04:33:00,
2013-04-21 20:38:00,30.3,30.2,0.00,East,101,6.7,-999.0,99,0.00,,,-99.99,,2013-04-22 04:38:00,
2013-04-21 20:43:00,30.2,30.1,0.00,SSE,148,10.8,-999.0,99,0.00,,,-99.99,,2013-04-22 04:43:00,
2013-04-21 20:48:00,30.3,30.1,0.00,SSE,148,11.4,-999.0,99,0.00,,,-99.99,,2013-04-22 04:48:00,
2013-04-21 20:53:00,30.3,30.2,0.00,SE,141,11.7,-999.0,99,0.00,,,-99.99,,2013-04-22 04:53:00,
2013-04-21 20:58:00,30.1,29.9,0.00,SE,131,10.0,-999.0,99,0.00,,,-99.99,,2013-04-22 04:58:00,
2013-04-21 21:03:00,30.1,30.0,0.00,SE,130,7.7,-999.0,99,0.00,,,-99.99,,2013-04-22 05:03:00,
2013-04-21 21:08:00,30.2,30.0,0.00,South,178,6.5,-999.0,99,0.00,,,-99.99,,2013-04-22 05:08:00,
2013-04-21 21:13:00,30.2,30.0,0.00,SSE,165,8.6,-999.0,99,0.00,,,-99.99,,2013-04-22 05:13:00,
2013-04-21 21:18:00,30.2,30.1,0.00,SE,125,6.1,-999.0,99,0.00,,,-99.99,,2013-04-22 05:18:00,
2013-04-21 21:23:00,30.2,30.0,0.00,ESE,109,5.9,-999.0,99,0.00,,,-99.99,,2013-04-22 05:23:00,
2013-04-21 21:28:00,30.2,30.0,0.00,East,99,6.7,-999.0,99,0.00,,,-99.99,,2013-04-22 05:28:00,
2013-04-21 21:41:00,30.1,30.0,0.00,East,94,10.0,-999.0,99,0.00,,,-99.99,,2013-04-22 05:41:00,
2013-04-21 21:46:00,30.2,30.0,0.00,ESE,122,6.4,-999.0,99,0.00,,,-99.99,,2013-04-22 05:46:00,
2013-04-21 21:51:00,30.1,30.0,0.00,SSE,154,13.2,-999.0,99,0.00,,,-99.99,,2013-04-22 05:51:00,
2013-04-21 21:57:00,30.2,30.1,0.00,East,81,8.6,-999.0,99,0.00,,,-99.99,,2013-04-22 05:57:00,
2013-04-21 22:06:00,30.2,30.0,0.00,ESE,110,8.8,-999.0,99,0.00,,,-99.99,,2013-04-22 06:06:00,
2013-04-21 22:12:00,30.1,30.0,0.00,ENE,68,8.2,-999.0,99,0.00,,,-99.99,,2013-04-22 06:12:00,
2013-04-21 22:17:00,30.1,30.0,0.00,ENE,78,2.5,-999.0,99,0.00,,,-99.99,,2013-04-22 06:17:00,
2013-04-21 22:22:00,30.2,30.0,0.00,SSE,151,4.7,-999.0,99,0.00,,,-99.99,,2013-04-22 06:22:00,
2013-04-21 22:28:00,30.1,29.9,0.00,ESE,112,5.6,-999.0,99,0.00,,,-99.99,,2013-04-22 06:28:00,
2013-04-21 22:33:00,30.1,30.0,0.00,ENE,77,11.0,-999.0,99,0.00,,,-99.99,,2013-04-22 06:33:00,
2013-04-21 22:39:00,30.2,30.1,0.00,ENE,59,3.5,-999.0,99,0.00,,,-99.99,,2013-04-22 06:39:00,
2013-04-21 22:44:00,30.1,29.9,0.00,ESE,106,6.5,-999.0,99,0.00,,,-99.99,,2013-04-22 06:44:00,
2013-04-21 22:49:00,30.2,30.0,0.00,East,92,6.7,-999.0,99,0.00,,,-99.99,,2013-04-22 06:49:00,
2013-04-21 22:54:00,30.1,30.0,0.00,ENE,75,5.5,-999.0,99,0.00,,,-99.99,,2013-04-22 06:54:00,
2013-04-21 22:59:00,30.1,30.0,0.00,SE,131,4.0,-999.0,99,0.00,,,-99.99,,2013-04-22 06:59:00,
2013-04-21 23:04:00,30.2,30.0,0.00,ESE,111,6.3,-999.0,99,0.00,,,-99.99,,2013-04-22 07:04:00,
2013-04-21 23:09:00,30.1,29.9,0.00,SE,130,7.8,-999.0,99,0.00,,,-99.99,,2013-04-22 07:09:00,
2013-04-21 23:14:00,30.0,29.8,0.00,ESE,106,7.9,-999.0,99,0.00,,,-99.99,,2013-04-22 07:14:00,
2013-04-21 23:19:00,30.0,29.9,0.00,East,99,7.3,-999.0,99,0.00,,,-99.99,,2013-04-22 07:19:00,
2013-04-21 23:24:00,30.0,29.8,0.00,East,91,6.9,-999.0,99,0.00,,,-99.99,,2013-04-22 07:24:00,
2013-04-21 23:29:00,29.9,29.7,0.00,East,98,6.5,-999.0,99,0.00,,,-99.99,,2013-04-22 07:29:00,
2013-04-21 23:35:00,29.9,29.7,0.00,ESE,118,8.8,-999.0,99,0.00,,,-99.99,,2013-04-22 07:35:00,
2013-04-21 23:40:00,29.9,29.7,0.00,ESE,113,7.8,-999.0,99,0.00,,,-99.99,,2013-04-22 07:40:00,
2013-04-21 23:45:00,30.0,29.9,0.00,East,93,9.4,-999.0,99,0.00,,,-99.99,,2013-04-22 07:45:00,
2013-04-21 23:50:00,30.1,29.9,0.00,SE,133,6.1,-999.0,99,0.00,,,-99.99,,2013-04-22 07:50:00,
2013-04-21 23:55:00,30.1,29.9,0.00,SE,129,8.8,-999.0,99,0.00,,,-99.99,,2013-04-22 07:55:00,